sensor_id;sensor_type;location;lat;lon;timestamp;P1;durP1;ratioP1;P2;durP2;ratioP2
67902;SDS011;54708;43.612;1.568;2023-03-05T00:02:15;61.80;;;33.90;;
67902;SDS011;54708;43.612;1.568;2023-03-05T00:04:40;59.20;;;33.85;;
67902;SDS011;54708;43.612;1.568;2023-03-05T00:07:05;61.58;;;33.30;;
67902;SDS011;54708;43.612;1.568;2023-03-05T00:09:33;57.60;;;33.70;;
67902;SDS011;54708;43.612;1.568;2023-03-05T00:11:58;62.78;;;33.60;;
67902;SDS011;54708;43.612;1.568;2023-03-05T00:14:24;59.83;;;32.63;;
67902;SDS011;54708;43.612;1.568;2023-03-05T00:16:49;60.20;;;35.10;;
67902;SDS011;54708;43.612;1.568;2023-03-05T00:19:15;59.50;;;33.85;;
67902;SDS011;54708;43.612;1.568;2023-03-05T00:21:41;56.83;;;32.55;;
67902;SDS011;54708;43.612;1.568;2023-03-05T00:24:09;56.08;;;31.45;;
67902;SDS011;54708;43.612;1.568;2023-03-05T00:26:39;59.35;;;32.92;;
67902;SDS011;54708;43.612;1.568;2023-03-05T00:29:05;56.00;;;32.35;;
67902;SDS011;54708;43.612;1.568;2023-03-05T00:31:33;55.00;;;32.92;;
67902;SDS011;54708;43.612;1.568;2023-03-05T00:34:00;62.92;;;36.08;;
67902;SDS011;54708;43.612;1.568;2023-03-05T00:36:28;59.47;;;31.35;;
67902;SDS011;54708;43.612;1.568;2023-03-05T00:38:54;62.78;;;33.50;;
67902;SDS011;54708;43.612;1.568;2023-03-05T00:41:19;57.55;;;33.67;;
67902;SDS011;54708;43.612;1.568;2023-03-05T00:43:45;55.15;;;31.92;;
67902;SDS011;54708;43.612;1.568;2023-03-05T00:46:11;53.95;;;32.03;;
67902;SDS011;54708;43.612;1.568;2023-03-05T00:48:36;65.55;;;33.10;;
67902;SDS011;54708;43.612;1.568;2023-03-05T00:51:02;58.72;;;32.50;;
67902;SDS011;54708;43.612;1.568;2023-03-05T00:53:27;57.70;;;32.03;;
67902;SDS011;54708;43.612;1.568;2023-03-05T00:55:53;59.22;;;34.90;;
67902;SDS011;54708;43.612;1.568;2023-03-05T00:58:18;58.75;;;34.90;;
67902;SDS011;54708;43.612;1.568;2023-03-05T01:00:44;53.45;;;30.63;;
67902;SDS011;54708;43.612;1.568;2023-03-05T01:03:09;60.78;;;33.08;;
67902;SDS011;54708;43.612;1.568;2023-03-05T01:05:35;55.42;;;32.85;;
67902;SDS011;54708;43.612;1.568;2023-03-05T01:08:00;64.25;;;34.47;;
67902;SDS011;54708;43.612;1.568;2023-03-05T01:10:26;56.42;;;32.20;;
67902;SDS011;54708;43.612;1.568;2023-03-05T01:12:52;57.15;;;31.95;;
67902;SDS011;54708;43.612;1.568;2023-03-05T01:15:18;58.00;;;32.42;;
67902;SDS011;54708;43.612;1.568;2023-03-05T01:17:44;62.95;;;33.15;;
67902;SDS011;54708;43.612;1.568;2023-03-05T01:20:14;56.08;;;33.40;;
67902;SDS011;54708;43.612;1.568;2023-03-05T01:22:40;62.47;;;34.40;;
67902;SDS011;54708;43.612;1.568;2023-03-05T01:25:06;61.65;;;34.00;;
67902;SDS011;54708;43.612;1.568;2023-03-05T01:27:32;61.03;;;33.50;;
67902;SDS011;54708;43.612;1.568;2023-03-05T01:29:57;58.95;;;32.83;;
67902;SDS011;54708;43.612;1.568;2023-03-05T01:32:23;56.88;;;33.22;;
67902;SDS011;54708;43.612;1.568;2023-03-05T01:34:48;61.65;;;33.33;;
67902;SDS011;54708;43.612;1.568;2023-03-05T01:37:13;57.03;;;33.70;;
67902;SDS011;54708;43.612;1.568;2023-03-05T01:39:39;60.30;;;34.53;;
67902;SDS011;54708;43.612;1.568;2023-03-05T01:42:04;61.70;;;32.35;;
67902;SDS011;54708;43.612;1.568;2023-03-05T01:44:30;59.00;;;34.30;;
67902;SDS011;54708;43.612;1.568;2023-03-05T01:46:56;62.28;;;34.00;;
67902;SDS011;54708;43.612;1.568;2023-03-05T01:49:23;53.75;;;31.67;;
67902;SDS011;54708;43.612;1.568;2023-03-05T01:54:16;69.05;;;33.17;;
67902;SDS011;54708;43.612;1.568;2023-03-05T01:56:44;56.30;;;32.30;;
67902;SDS011;54708;43.612;1.568;2023-03-05T01:59:10;60.03;;;33.47;;
67902;SDS011;54708;43.612;1.568;2023-03-05T02:01:40;57.25;;;34.50;;
67902;SDS011;54708;43.612;1.568;2023-03-05T02:04:08;57.67;;;34.90;;
67902;SDS011;54708;43.612;1.568;2023-03-05T02:06:36;62.47;;;32.45;;
67902;SDS011;54708;43.612;1.568;2023-03-05T02:09:04;64.18;;;33.45;;
67902;SDS011;54708;43.612;1.568;2023-03-05T02:11:29;57.55;;;34.35;;
67902;SDS011;54708;43.612;1.568;2023-03-05T02:13:55;64.07;;;36.65;;
67902;SDS011;54708;43.612;1.568;2023-03-05T02:16:21;65.88;;;35.72;;
67902;SDS011;54708;43.612;1.568;2023-03-05T02:18:46;65.15;;;35.85;;
67902;SDS011;54708;43.612;1.568;2023-03-05T02:21:11;55.22;;;31.65;;
67902;SDS011;54708;43.612;1.568;2023-03-05T02:23:37;63.13;;;34.75;;
67902;SDS011;54708;43.612;1.568;2023-03-05T02:26:07;53.90;;;33.30;;
67902;SDS011;54708;43.612;1.568;2023-03-05T02:28:38;58.10;;;33.50;;
67902;SDS011;54708;43.612;1.568;2023-03-05T02:31:21;62.33;;;34.72;;
67902;SDS011;54708;43.612;1.568;2023-03-05T02:33:47;61.28;;;34.17;;
67902;SDS011;54708;43.612;1.568;2023-03-05T02:36:13;56.45;;;33.42;;
67902;SDS011;54708;43.612;1.568;2023-03-05T02:38:40;64.25;;;34.50;;
67902;SDS011;54708;43.612;1.568;2023-03-05T02:41:06;59.58;;;32.47;;
67902;SDS011;54708;43.612;1.568;2023-03-05T02:43:31;64.13;;;35.05;;
67902;SDS011;54708;43.612;1.568;2023-03-05T02:45:57;60.25;;;34.67;;
67902;SDS011;54708;43.612;1.568;2023-03-05T02:48:22;58.97;;;33.53;;
67902;SDS011;54708;43.612;1.568;2023-03-05T02:50:48;61.85;;;35.35;;
67902;SDS011;54708;43.612;1.568;2023-03-05T02:53:13;59.88;;;33.15;;
67902;SDS011;54708;43.612;1.568;2023-03-05T02:55:39;60.40;;;35.05;;
67902;SDS011;54708;43.612;1.568;2023-03-05T02:58:04;64.15;;;33.65;;
67902;SDS011;54708;43.612;1.568;2023-03-05T03:00:30;68.47;;;36.85;;
67902;SDS011;54708;43.612;1.568;2023-03-05T03:02:55;60.45;;;34.63;;
67902;SDS011;54708;43.612;1.568;2023-03-05T03:05:20;66.72;;;36.63;;
67902;SDS011;54708;43.612;1.568;2023-03-05T03:07:46;60.13;;;33.97;;
67902;SDS011;54708;43.612;1.568;2023-03-05T03:10:11;57.75;;;33.50;;
67902;SDS011;54708;43.612;1.568;2023-03-05T03:12:37;59.40;;;33.72;;
67902;SDS011;54708;43.612;1.568;2023-03-05T03:15:04;63.35;;;34.97;;
67902;SDS011;54708;43.612;1.568;2023-03-05T03:17:30;63.50;;;35.72;;
67902;SDS011;54708;43.612;1.568;2023-03-05T03:19:55;69.18;;;33.67;;
67902;SDS011;54708;43.612;1.568;2023-03-05T03:22:20;66.72;;;34.95;;
67902;SDS011;54708;43.612;1.568;2023-03-05T03:24:46;61.90;;;33.92;;
67902;SDS011;54708;43.612;1.568;2023-03-05T03:27:11;60.53;;;32.97;;
67902;SDS011;54708;43.612;1.568;2023-03-05T03:29:37;62.42;;;35.42;;
67902;SDS011;54708;43.612;1.568;2023-03-05T03:32:02;63.28;;;36.28;;
67902;SDS011;54708;43.612;1.568;2023-03-05T03:34:28;65.30;;;34.17;;
67902;SDS011;54708;43.612;1.568;2023-03-05T03:36:54;63.70;;;35.13;;
67902;SDS011;54708;43.612;1.568;2023-03-05T03:39:19;67.72;;;33.63;;
67902;SDS011;54708;43.612;1.568;2023-03-05T03:41:49;58.40;;;33.05;;
67902;SDS011;54708;43.612;1.568;2023-03-05T03:44:16;64.80;;;35.13;;
67902;SDS011;54708;43.612;1.568;2023-03-05T03:46:42;69.05;;;34.70;;
67902;SDS011;54708;43.612;1.568;2023-03-05T03:49:11;65.82;;;33.85;;
67902;SDS011;54708;43.612;1.568;2023-03-05T03:51:39;59.90;;;33.67;;
67902;SDS011;54708;43.612;1.568;2023-03-05T03:54:04;63.22;;;34.90;;
67902;SDS011;54708;43.612;1.568;2023-03-05T03:56:30;62.13;;;35.97;;
67902;SDS011;54708;43.612;1.568;2023-03-05T03:58:55;61.83;;;32.78;;
67902;SDS011;54708;43.612;1.568;2023-03-05T04:01:20;66.22;;;34.10;;
67902;SDS011;54708;43.612;1.568;2023-03-05T04:03:46;67.13;;;35.80;;
67902;SDS011;54708;43.612;1.568;2023-03-05T04:06:11;62.63;;;34.13;;
67902;SDS011;54708;43.612;1.568;2023-03-05T04:08:37;60.20;;;32.80;;
67902;SDS011;54708;43.612;1.568;2023-03-05T04:11:03;65.72;;;35.78;;
67902;SDS011;54708;43.612;1.568;2023-03-05T04:13:28;64.18;;;35.38;;
67902;SDS011;54708;43.612;1.568;2023-03-05T04:15:54;62.83;;;33.15;;
67902;SDS011;54708;43.612;1.568;2023-03-05T04:18:20;62.65;;;34.75;;
67902;SDS011;54708;43.612;1.568;2023-03-05T04:20:45;65.53;;;36.25;;
67902;SDS011;54708;43.612;1.568;2023-03-05T04:23:11;65.15;;;35.67;;
67902;SDS011;54708;43.612;1.568;2023-03-05T04:25:36;62.80;;;32.72;;
67902;SDS011;54708;43.612;1.568;2023-03-05T04:28:01;65.40;;;32.72;;
67902;SDS011;54708;43.612;1.568;2023-03-05T04:30:27;57.53;;;32.78;;
67902;SDS011;54708;43.612;1.568;2023-03-05T04:32:52;59.35;;;31.50;;
67902;SDS011;54708;43.612;1.568;2023-03-05T04:35:18;62.38;;;33.47;;
67902;SDS011;54708;43.612;1.568;2023-03-05T04:37:43;64.82;;;34.20;;
67902;SDS011;54708;43.612;1.568;2023-03-05T04:40:09;58.22;;;32.25;;
67902;SDS011;54708;43.612;1.568;2023-03-05T04:42:35;57.60;;;32.30;;
67902;SDS011;54708;43.612;1.568;2023-03-05T04:45:00;57.85;;;31.50;;
67902;SDS011;54708;43.612;1.568;2023-03-05T04:47:26;60.20;;;34.97;;
67902;SDS011;54708;43.612;1.568;2023-03-05T04:49:51;60.40;;;33.85;;
67902;SDS011;54708;43.612;1.568;2023-03-05T04:52:17;61.97;;;31.88;;
67902;SDS011;54708;43.612;1.568;2023-03-05T04:54:43;55.22;;;33.20;;
67902;SDS011;54708;43.612;1.568;2023-03-05T04:57:09;58.40;;;34.33;;
67902;SDS011;54708;43.612;1.568;2023-03-05T04:59:35;62.13;;;34.47;;
67902;SDS011;54708;43.612;1.568;2023-03-05T05:02:01;60.65;;;34.45;;
67902;SDS011;54708;43.612;1.568;2023-03-05T05:04:26;59.53;;;32.38;;
67902;SDS011;54708;43.612;1.568;2023-03-05T05:06:53;61.25;;;34.30;;
67902;SDS011;54708;43.612;1.568;2023-03-05T05:09:20;59.20;;;33.00;;
67902;SDS011;54708;43.612;1.568;2023-03-05T05:11:45;61.67;;;32.80;;
67902;SDS011;54708;43.612;1.568;2023-03-05T05:14:10;58.50;;;32.33;;
67902;SDS011;54708;43.612;1.568;2023-03-05T05:16:36;65.32;;;35.13;;
67902;SDS011;54708;43.612;1.568;2023-03-05T05:19:01;61.90;;;32.05;;
67902;SDS011;54708;43.612;1.568;2023-03-05T05:21:27;59.95;;;34.33;;
67902;SDS011;54708;43.612;1.568;2023-03-05T05:23:53;64.25;;;34.22;;
67902;SDS011;54708;43.612;1.568;2023-03-05T05:26:18;53.00;;;31.15;;
67902;SDS011;54708;43.612;1.568;2023-03-05T05:28:44;58.80;;;32.22;;
67902;SDS011;54708;43.612;1.568;2023-03-05T05:31:10;66.45;;;35.42;;
67902;SDS011;54708;43.612;1.568;2023-03-05T05:33:37;67.00;;;36.17;;
67902;SDS011;54708;43.612;1.568;2023-03-05T05:36:03;61.92;;;33.45;;
67902;SDS011;54708;43.612;1.568;2023-03-05T05:38:29;56.65;;;32.08;;
67902;SDS011;54708;43.612;1.568;2023-03-05T05:41:00;60.47;;;33.65;;
67902;SDS011;54708;43.612;1.568;2023-03-05T05:43:35;58.28;;;32.33;;
67902;SDS011;54708;43.612;1.568;2023-03-05T05:46:01;62.67;;;35.08;;
67902;SDS011;54708;43.612;1.568;2023-03-05T05:48:29;59.17;;;34.15;;
67902;SDS011;54708;43.612;1.568;2023-03-05T05:50:55;66.47;;;36.30;;
67902;SDS011;54708;43.612;1.568;2023-03-05T05:53:21;60.88;;;32.85;;
67902;SDS011;54708;43.612;1.568;2023-03-05T05:55:46;65.05;;;34.28;;
67902;SDS011;54708;43.612;1.568;2023-03-05T05:58:11;60.45;;;35.83;;
67902;SDS011;54708;43.612;1.568;2023-03-05T06:00:37;61.75;;;32.78;;
67902;SDS011;54708;43.612;1.568;2023-03-05T06:03:03;57.85;;;34.08;;
67902;SDS011;54708;43.612;1.568;2023-03-05T06:05:28;61.50;;;34.38;;
67902;SDS011;54708;43.612;1.568;2023-03-05T06:07:53;64.57;;;33.63;;
67902;SDS011;54708;43.612;1.568;2023-03-05T06:10:19;72.00;;;41.38;;
67902;SDS011;54708;43.612;1.568;2023-03-05T06:12:44;73.97;;;38.42;;
67902;SDS011;54708;43.612;1.568;2023-03-05T06:15:10;63.88;;;38.85;;
67902;SDS011;54708;43.612;1.568;2023-03-05T06:17:35;71.95;;;37.20;;
67902;SDS011;54708;43.612;1.568;2023-03-05T06:20:01;61.17;;;34.08;;
67902;SDS011;54708;43.612;1.568;2023-03-05T06:22:28;59.17;;;33.45;;
67902;SDS011;54708;43.612;1.568;2023-03-05T06:24:53;61.78;;;33.25;;
67902;SDS011;54708;43.612;1.568;2023-03-05T06:27:19;66.15;;;36.50;;
67902;SDS011;54708;43.612;1.568;2023-03-05T06:29:44;64.95;;;34.47;;
67902;SDS011;54708;43.612;1.568;2023-03-05T06:32:09;60.53;;;33.08;;
67902;SDS011;54708;43.612;1.568;2023-03-05T06:34:35;63.60;;;35.53;;
67902;SDS011;54708;43.612;1.568;2023-03-05T06:37:00;67.05;;;34.10;;
67902;SDS011;54708;43.612;1.568;2023-03-05T06:39:26;70.40;;;36.42;;
67902;SDS011;54708;43.612;1.568;2023-03-05T06:41:51;66.40;;;35.83;;
67902;SDS011;54708;43.612;1.568;2023-03-05T06:44:16;67.32;;;35.08;;
67902;SDS011;54708;43.612;1.568;2023-03-05T06:46:42;62.60;;;33.95;;
67902;SDS011;54708;43.612;1.568;2023-03-05T06:49:08;62.80;;;34.15;;
67902;SDS011;54708;43.612;1.568;2023-03-05T06:51:36;59.30;;;33.30;;
67902;SDS011;54708;43.612;1.568;2023-03-05T06:54:06;58.80;;;36.00;;
67902;SDS011;54708;43.612;1.568;2023-03-05T06:56:34;63.42;;;35.63;;
67902;SDS011;54708;43.612;1.568;2023-03-05T06:59:01;68.13;;;35.72;;
67902;SDS011;54708;43.612;1.568;2023-03-05T07:01:26;67.22;;;37.80;;
67902;SDS011;54708;43.612;1.568;2023-03-05T07:03:52;66.45;;;35.58;;
67902;SDS011;54708;43.612;1.568;2023-03-05T07:06:19;63.83;;;35.63;;
67902;SDS011;54708;43.612;1.568;2023-03-05T07:08:45;65.38;;;34.75;;
67902;SDS011;54708;43.612;1.568;2023-03-05T07:11:12;60.40;;;34.25;;
67902;SDS011;54708;43.612;1.568;2023-03-05T07:13:39;57.10;;;32.42;;
67902;SDS011;54708;43.612;1.568;2023-03-05T07:16:06;61.70;;;35.28;;
67902;SDS011;54708;43.612;1.568;2023-03-05T07:18:32;61.50;;;33.78;;
67902;SDS011;54708;43.612;1.568;2023-03-05T07:21:02;67.43;;;35.28;;
67902;SDS011;54708;43.612;1.568;2023-03-05T07:23:31;63.85;;;34.58;;
67902;SDS011;54708;43.612;1.568;2023-03-05T07:25:59;59.90;;;33.13;;
67902;SDS011;54708;43.612;1.568;2023-03-05T07:28:25;66.10;;;36.38;;
67902;SDS011;54708;43.612;1.568;2023-03-05T07:30:58;68.43;;;36.40;;
67902;SDS011;54708;43.612;1.568;2023-03-05T07:33:25;63.70;;;33.75;;
67902;SDS011;54708;43.612;1.568;2023-03-05T07:35:51;65.97;;;37.15;;
67902;SDS011;54708;43.612;1.568;2023-03-05T07:38:16;63.83;;;36.17;;
67902;SDS011;54708;43.612;1.568;2023-03-05T07:40:42;57.00;;;33.28;;
67902;SDS011;54708;43.612;1.568;2023-03-05T07:43:07;67.80;;;38.83;;
67902;SDS011;54708;43.612;1.568;2023-03-05T07:45:33;67.13;;;36.92;;
67902;SDS011;54708;43.612;1.568;2023-03-05T07:47:58;72.47;;;42.75;;
67902;SDS011;54708;43.612;1.568;2023-03-05T07:50:23;77.18;;;40.28;;
67902;SDS011;54708;43.612;1.568;2023-03-05T07:52:49;76.63;;;41.70;;
67902;SDS011;54708;43.612;1.568;2023-03-05T07:55:14;82.68;;;42.08;;
67902;SDS011;54708;43.612;1.568;2023-03-05T07:57:40;69.85;;;36.75;;
67902;SDS011;54708;43.612;1.568;2023-03-05T08:00:05;73.35;;;39.95;;
67902;SDS011;54708;43.612;1.568;2023-03-05T08:02:31;69.90;;;38.15;;
67902;SDS011;54708;43.612;1.568;2023-03-05T08:04:57;66.50;;;35.10;;
67902;SDS011;54708;43.612;1.568;2023-03-05T08:07:22;62.15;;;34.53;;
67902;SDS011;54708;43.612;1.568;2023-03-05T08:09:48;67.82;;;35.42;;
67902;SDS011;54708;43.612;1.568;2023-03-05T08:12:13;67.13;;;37.85;;
67902;SDS011;54708;43.612;1.568;2023-03-05T08:14:38;65.50;;;37.53;;
67902;SDS011;54708;43.612;1.568;2023-03-05T08:17:04;62.10;;;35.22;;
67902;SDS011;54708;43.612;1.568;2023-03-05T08:19:30;58.10;;;34.65;;
67902;SDS011;54708;43.612;1.568;2023-03-05T08:21:56;59.22;;;34.35;;
67902;SDS011;54708;43.612;1.568;2023-03-05T08:24:22;64.50;;;33.08;;
67902;SDS011;54708;43.612;1.568;2023-03-05T08:26:53;65.32;;;34.50;;
67902;SDS011;54708;43.612;1.568;2023-03-05T08:29:19;63.60;;;35.20;;
67902;SDS011;54708;43.612;1.568;2023-03-05T08:31:45;66.32;;;33.50;;
67902;SDS011;54708;43.612;1.568;2023-03-05T08:34:11;52.53;;;30.92;;
67902;SDS011;54708;43.612;1.568;2023-03-05T08:36:36;54.97;;;32.38;;
67902;SDS011;54708;43.612;1.568;2023-03-05T08:39:02;54.17;;;31.70;;
67902;SDS011;54708;43.612;1.568;2023-03-05T08:41:28;64.32;;;34.92;;
67902;SDS011;54708;43.612;1.568;2023-03-05T08:43:53;59.42;;;31.23;;
67902;SDS011;54708;43.612;1.568;2023-03-05T08:46:19;56.05;;;33.08;;
67902;SDS011;54708;43.612;1.568;2023-03-05T08:48:44;58.53;;;34.15;;
67902;SDS011;54708;43.612;1.568;2023-03-05T08:51:11;56.90;;;33.20;;
67902;SDS011;54708;43.612;1.568;2023-03-05T08:53:38;50.55;;;31.20;;
67902;SDS011;54708;43.612;1.568;2023-03-05T08:56:04;62.10;;;32.00;;
67902;SDS011;54708;43.612;1.568;2023-03-05T08:58:30;61.50;;;31.90;;
67902;SDS011;54708;43.612;1.568;2023-03-05T09:00:56;58.42;;;31.65;;
67902;SDS011;54708;43.612;1.568;2023-03-05T09:03:21;57.42;;;31.08;;
67902;SDS011;54708;43.612;1.568;2023-03-05T09:05:47;56.22;;;31.42;;
67902;SDS011;54708;43.612;1.568;2023-03-05T09:08:12;54.78;;;32.40;;
67902;SDS011;54708;43.612;1.568;2023-03-05T09:10:39;61.70;;;32.90;;
67902;SDS011;54708;43.612;1.568;2023-03-05T09:13:06;59.22;;;32.35;;
67902;SDS011;54708;43.612;1.568;2023-03-05T09:15:31;68.97;;;38.08;;
67902;SDS011;54708;43.612;1.568;2023-03-05T09:17:57;51.97;;;30.60;;
67902;SDS011;54708;43.612;1.568;2023-03-05T09:20:23;59.13;;;31.48;;
67902;SDS011;54708;43.612;1.568;2023-03-05T09:22:48;51.15;;;32.53;;
67902;SDS011;54708;43.612;1.568;2023-03-05T09:25:14;61.97;;;35.08;;
67902;SDS011;54708;43.612;1.568;2023-03-05T09:27:39;61.40;;;35.25;;
67902;SDS011;54708;43.612;1.568;2023-03-05T09:30:05;60.25;;;34.60;;
67902;SDS011;54708;43.612;1.568;2023-03-05T09:32:31;57.08;;;32.30;;
67902;SDS011;54708;43.612;1.568;2023-03-05T09:34:56;54.67;;;31.70;;
67902;SDS011;54708;43.612;1.568;2023-03-05T09:37:22;55.92;;;32.42;;
67902;SDS011;54708;43.612;1.568;2023-03-05T09:39:48;55.13;;;32.58;;
67902;SDS011;54708;43.612;1.568;2023-03-05T09:52:56;58.92;;;35.17;;
67902;SDS011;54708;43.612;1.568;2023-03-05T09:55:27;53.13;;;33.55;;
67902;SDS011;54708;43.612;1.568;2023-03-05T09:58:03;53.95;;;32.72;;
67902;SDS011;54708;43.612;1.568;2023-03-05T10:00:38;57.58;;;34.55;;
67902;SDS011;54708;43.612;1.568;2023-03-05T10:03:09;57.70;;;34.40;;
67902;SDS011;54708;43.612;1.568;2023-03-05T10:08:09;56.85;;;32.30;;
67902;SDS011;54708;43.612;1.568;2023-03-05T10:10:40;54.05;;;32.42;;
67902;SDS011;54708;43.612;1.568;2023-03-05T10:15:56;57.05;;;32.92;;
67902;SDS011;54708;43.612;1.568;2023-03-05T10:21:00;50.80;;;30.35;;
67902;SDS011;54708;43.612;1.568;2023-03-05T10:31:29;55.70;;;32.70;;
67902;SDS011;54708;43.612;1.568;2023-03-05T10:50:22;53.08;;;30.40;;
67902;SDS011;54708;43.612;1.568;2023-03-05T10:55:38;47.17;;;28.50;;
67902;SDS011;54708;43.612;1.568;2023-03-05T10:58:10;48.20;;;29.27;;
67902;SDS011;54708;43.612;1.568;2023-03-05T11:00:37;47.08;;;29.40;;
67902;SDS011;54708;43.612;1.568;2023-03-05T11:05:40;45.75;;;27.00;;
67902;SDS011;54708;43.612;1.568;2023-03-05T11:08:27;40.45;;;25.63;;
67902;SDS011;54708;43.612;1.568;2023-03-05T11:11:03;39.70;;;26.08;;
67902;SDS011;54708;43.612;1.568;2023-03-05T11:13:32;44.90;;;28.35;;
67902;SDS011;54708;43.612;1.568;2023-03-05T11:16:01;44.20;;;27.00;;
67902;SDS011;54708;43.612;1.568;2023-03-05T11:18:28;36.83;;;23.70;;
67902;SDS011;54708;43.612;1.568;2023-03-05T11:21:21;41.42;;;27.10;;
67902;SDS011;54708;43.612;1.568;2023-03-05T11:24:04;47.10;;;25.92;;
67902;SDS011;54708;43.612;1.568;2023-03-05T11:26:33;41.40;;;26.83;;
67902;SDS011;54708;43.612;1.568;2023-03-05T11:28:59;42.90;;;27.63;;
67902;SDS011;54708;43.612;1.568;2023-03-05T11:31:31;43.17;;;26.38;;
67902;SDS011;54708;43.612;1.568;2023-03-05T11:36:33;43.33;;;25.63;;
67902;SDS011;54708;43.612;1.568;2023-03-05T11:44:03;44.50;;;25.10;;
67902;SDS011;54708;43.612;1.568;2023-03-05T11:46:40;37.38;;;22.33;;
67902;SDS011;54708;43.612;1.568;2023-03-05T11:49:10;42.58;;;25.40;;
67902;SDS011;54708;43.612;1.568;2023-03-05T11:51:40;47.90;;;24.35;;
67902;SDS011;54708;43.612;1.568;2023-03-05T11:54:11;45.55;;;24.60;;
67902;SDS011;54708;43.612;1.568;2023-03-05T11:56:41;40.40;;;24.73;;
67902;SDS011;54708;43.612;1.568;2023-03-05T11:59:15;38.75;;;24.27;;
67902;SDS011;54708;43.612;1.568;2023-03-05T12:01:50;42.08;;;24.10;;
67902;SDS011;54708;43.612;1.568;2023-03-05T12:04:18;38.10;;;23.05;;
67902;SDS011;54708;43.612;1.568;2023-03-05T12:06:51;37.03;;;25.02;;
67902;SDS011;54708;43.612;1.568;2023-03-05T12:23:02;36.38;;;22.27;;
67902;SDS011;54708;43.612;1.568;2023-03-05T12:27:58;37.17;;;22.55;;
67902;SDS011;54708;43.612;1.568;2023-03-05T12:32:58;37.92;;;24.33;;
67902;SDS011;54708;43.612;1.568;2023-03-05T12:35:29;37.67;;;23.38;;
67902;SDS011;54708;43.612;1.568;2023-03-05T12:38:04;38.53;;;24.90;;
67902;SDS011;54708;43.612;1.568;2023-03-05T12:40:30;37.42;;;23.92;;
67902;SDS011;54708;43.612;1.568;2023-03-05T12:43:03;38.63;;;21.67;;
67902;SDS011;54708;43.612;1.568;2023-03-05T12:45:33;41.03;;;22.38;;
67902;SDS011;54708;43.612;1.568;2023-03-05T12:53:14;36.03;;;23.60;;
67902;SDS011;54708;43.612;1.568;2023-03-05T13:03:38;37.70;;;23.60;;
67902;SDS011;54708;43.612;1.568;2023-03-05T13:06:19;37.35;;;23.48;;
67902;SDS011;54708;43.612;1.568;2023-03-05T13:09:01;31.30;;;20.40;;
67902;SDS011;54708;43.612;1.568;2023-03-05T13:13:59;43.20;;;25.95;;
67902;SDS011;54708;43.612;1.568;2023-03-05T13:16:27;39.30;;;23.35;;
67902;SDS011;54708;43.612;1.568;2023-03-05T13:18:57;36.75;;;22.85;;
67902;SDS011;54708;43.612;1.568;2023-03-05T13:21:26;35.42;;;23.40;;
67902;SDS011;54708;43.612;1.568;2023-03-05T13:23:54;37.58;;;23.48;;
67902;SDS011;54708;43.612;1.568;2023-03-05T13:26:27;39.35;;;24.45;;
67902;SDS011;54708;43.612;1.568;2023-03-05T13:29:03;34.70;;;23.30;;
67902;SDS011;54708;43.612;1.568;2023-03-05T13:31:49;39.92;;;23.05;;
67902;SDS011;54708;43.612;1.568;2023-03-05T13:34:18;41.67;;;24.40;;
67902;SDS011;54708;43.612;1.568;2023-03-05T13:36:47;34.45;;;23.13;;
67902;SDS011;54708;43.612;1.568;2023-03-05T13:39:17;37.30;;;24.20;;
67902;SDS011;54708;43.612;1.568;2023-03-05T13:41:54;34.55;;;22.52;;
67902;SDS011;54708;43.612;1.568;2023-03-05T13:44:29;38.95;;;22.63;;
67902;SDS011;54708;43.612;1.568;2023-03-05T13:47:11;36.65;;;23.38;;
67902;SDS011;54708;43.612;1.568;2023-03-05T13:49:40;36.60;;;23.25;;
67902;SDS011;54708;43.612;1.568;2023-03-05T13:52:05;39.50;;;22.67;;
67902;SDS011;54708;43.612;1.568;2023-03-05T13:54:31;37.30;;;21.75;;
67902;SDS011;54708;43.612;1.568;2023-03-05T13:56:58;35.65;;;22.42;;
67902;SDS011;54708;43.612;1.568;2023-03-05T13:59:24;36.53;;;23.35;;
67902;SDS011;54708;43.612;1.568;2023-03-05T14:01:53;35.65;;;23.38;;
67902;SDS011;54708;43.612;1.568;2023-03-05T14:04:20;38.10;;;23.23;;
67902;SDS011;54708;43.612;1.568;2023-03-05T14:09:46;33.42;;;21.48;;
67902;SDS011;54708;43.612;1.568;2023-03-05T14:12:27;34.25;;;21.65;;
67902;SDS011;54708;43.612;1.568;2023-03-05T14:14:57;34.95;;;22.08;;
67902;SDS011;54708;43.612;1.568;2023-03-05T14:17:39;30.63;;;21.52;;
67902;SDS011;54708;43.612;1.568;2023-03-05T14:22:53;29.75;;;20.77;;
67902;SDS011;54708;43.612;1.568;2023-03-05T14:25:25;30.45;;;21.70;;
67902;SDS011;54708;43.612;1.568;2023-03-05T14:27:50;31.55;;;19.60;;
67902;SDS011;54708;43.612;1.568;2023-03-05T14:30:16;33.15;;;20.58;;
67902;SDS011;54708;43.612;1.568;2023-03-05T14:32:44;30.70;;;20.00;;
67902;SDS011;54708;43.612;1.568;2023-03-05T14:35:17;31.95;;;21.13;;
67902;SDS011;54708;43.612;1.568;2023-03-05T14:37:45;31.38;;;20.13;;
67902;SDS011;54708;43.612;1.568;2023-03-05T14:42:51;36.17;;;20.35;;
67902;SDS011;54708;43.612;1.568;2023-03-05T14:45:20;29.27;;;20.02;;
67902;SDS011;54708;43.612;1.568;2023-03-05T14:47:51;28.73;;;19.92;;
67902;SDS011;54708;43.612;1.568;2023-03-05T14:50:19;31.17;;;19.92;;
67902;SDS011;54708;43.612;1.568;2023-03-05T14:52:46;29.85;;;20.33;;
67902;SDS011;54708;43.612;1.568;2023-03-05T14:55:14;33.97;;;19.58;;
67902;SDS011;54708;43.612;1.568;2023-03-05T14:57:40;36.13;;;21.35;;
67902;SDS011;54708;43.612;1.568;2023-03-05T15:00:14;38.60;;;21.08;;
67902;SDS011;54708;43.612;1.568;2023-03-05T15:02:40;37.45;;;20.00;;
67902;SDS011;54708;43.612;1.568;2023-03-05T15:05:06;29.35;;;18.95;;
67902;SDS011;54708;43.612;1.568;2023-03-05T15:07:31;29.25;;;18.90;;
67902;SDS011;54708;43.612;1.568;2023-03-05T15:09:57;30.42;;;19.13;;
67902;SDS011;54708;43.612;1.568;2023-03-05T15:12:24;35.47;;;20.05;;
67902;SDS011;54708;43.612;1.568;2023-03-05T15:14:53;31.73;;;20.77;;
67902;SDS011;54708;43.612;1.568;2023-03-05T15:17:21;30.15;;;18.48;;
67902;SDS011;54708;43.612;1.568;2023-03-05T15:20:07;34.53;;;19.70;;
67902;SDS011;54708;43.612;1.568;2023-03-05T15:22:38;27.30;;;19.02;;
67902;SDS011;54708;43.612;1.568;2023-03-05T15:25:04;28.20;;;17.17;;
67902;SDS011;54708;43.612;1.568;2023-03-05T15:27:29;28.80;;;18.05;;
67902;SDS011;54708;43.612;1.568;2023-03-05T15:29:55;30.10;;;19.30;;
67902;SDS011;54708;43.612;1.568;2023-03-05T15:32:20;27.08;;;18.88;;
67902;SDS011;54708;43.612;1.568;2023-03-05T15:34:46;31.90;;;19.42;;
67902;SDS011;54708;43.612;1.568;2023-03-05T15:37:11;33.05;;;18.27;;
67902;SDS011;54708;43.612;1.568;2023-03-05T15:39:37;29.42;;;19.00;;
67902;SDS011;54708;43.612;1.568;2023-03-05T15:42:02;33.45;;;20.17;;
67902;SDS011;54708;43.612;1.568;2023-03-05T15:44:28;28.95;;;18.55;;
67902;SDS011;54708;43.612;1.568;2023-03-05T15:46:54;29.40;;;17.92;;
67902;SDS011;54708;43.612;1.568;2023-03-05T15:49:20;25.85;;;18.23;;
67902;SDS011;54708;43.612;1.568;2023-03-05T15:51:48;32.25;;;17.98;;
67902;SDS011;54708;43.612;1.568;2023-03-05T15:54:14;28.85;;;18.35;;
67902;SDS011;54708;43.612;1.568;2023-03-05T15:56:39;26.98;;;18.52;;
67902;SDS011;54708;43.612;1.568;2023-03-05T15:59:05;29.85;;;18.35;;
67902;SDS011;54708;43.612;1.568;2023-03-05T16:01:33;29.58;;;19.00;;
67902;SDS011;54708;43.612;1.568;2023-03-05T16:03:58;29.88;;;18.73;;